Time;durP1;ratioP1;P1;durP2;ratioP2;P2;SDS_P1;SDS_P2;PMS_P1;PMS_P2;Temp;Humidity;BMP_temperature;BMP_pressure;BME280_temperature;BME280_humidity;BME280_pressure;Samples;Min_cycle;Max_cycle;Signal;HPM_P1;HPM_P2
2023/07/12 00:00:46;;;;;;;12.93;3.70;;;19.50;99.90;;;;;;5014386;28;20326;-80
2023/07/12 00:03:13;;;;;;;8.70;3.20;;;19.50;99.90;;;;;;5014578;28;20243;-83
2023/07/12 00:05:43;;;;;;;13.68;3.70;;;19.50;99.90;;;;;;5014034;28;20199;-81
2023/07/12 00:08:17;;;;;;;14.30;3.47;;;19.50;99.90;;;;;;5018700;28;20241;-80
2023/07/12 00:10:45;;;;;;;15.82;3.67;;;19.50;99.90;;;;;;5033916;28;20225;-83
2023/07/12 00:13:12;;;;;;;11.73;3.92;;;19.50;99.90;;;;;;5033966;28;20219;-83
2023/07/12 00:15:40;;;;;;;16.13;3.88;;;19.40;99.90;;;;;;5034140;28;20256;-82
2023/07/12 00:18:14;;;;;;;10.73;3.38;;;19.40;99.90;;;;;;5033701;28;20226;-84
2023/07/12 00:20:43;;;;;;;11.75;3.85;;;19.40;99.90;;;;;;5033871;28;20291;-80
2023/07/12 00:23:11;;;;;;;11.35;4.00;;;19.30;99.90;;;;;;5033730;28;20253;-82
2023/07/12 00:25:38;;;;;;;10.93;4.00;;;19.30;99.90;;;;;;5033229;28;20635;-81
2023/07/12 00:28:17;;;;;;;16.10;4.47;;;19.20;99.90;;;;;;5033590;28;20265;-81
2023/07/12 00:30:43;;;;;;;15.90;4.32;;;19.20;99.90;;;;;;5033752;28;20189;-81
2023/07/12 00:33:10;;;;;;;9.88;3.58;;;19.20;99.90;;;;;;5031978;28;20232;-82
2023/07/12 00:35:39;;;;;;;12.63;4.03;;;19.20;99.90;;;;;;5033001;28;20237;-81
2023/07/12 00:38:16;;;;;;;11.75;4.05;;;19.20;99.90;;;;;;5032321;28;20230;-82
2023/07/12 00:40:59;;;;;;;9.50;3.83;;;19.20;99.90;;;;;;5032716;28;20254;-82
2023/07/12 00:43:30;;;;;;;16.27;4.65;;;19.20;99.90;;;;;;5033396;28;20281;-80
2023/07/12 00:46:01;;;;;;;14.35;4.40;;;19.20;99.90;;;;;;5032966;28;20695;-80
2023/07/12 00:48:28;;;;;;;14.43;4.55;;;19.20;99.90;;;;;;5033448;28;20274;-81
2023/07/12 00:50:55;;;;;;;12.13;4.38;;;19.10;99.90;;;;;;5033294;28;20490;-80
2023/07/12 00:53:25;;;;;;;16.13;4.60;;;19.10;99.90;;;;;;5032125;28;20284;-83
2023/07/12 00:56:02;;;;;;;14.40;4.72;;;19.10;99.90;;;;;;5033429;28;20242;-82
2023/07/12 00:58:34;;;;;;;15.35;4.90;;;19.20;99.90;;;;;;5033641;28;20195;-82
2023/07/12 01:01:04;;;;;;;14.90;4.93;;;19.20;99.90;;;;;;5032939;28;20229;-80
2023/07/12 01:03:34;;;;;;;17.25;5.07;;;19.10;99.90;;;;;;5033328;28;20194;-82
2023/07/12 01:06:03;;;;;;;12.07;4.63;;;19.10;99.90;;;;;;5033730;28;20281;-80
2023/07/12 01:08:31;;;;;;;15.48;5.85;;;19.10;99.90;;;;;;5032717;28;20203;-81
2023/07/12 01:11:02;;;;;;;13.00;5.05;;;19.10;99.90;;;;;;5030108;28;20211;-82
2023/07/12 01:13:30;;;;;;;12.25;4.57;;;19.10;99.90;;;;;;5013387;28;20281;-82
2023/07/12 01:16:01;;;;;;;13.45;4.40;;;19.00;99.90;;;;;;5012889;28;20191;-83
2023/07/12 01:18:28;;;;;;;12.80;5.13;;;19.00;99.90;;;;;;5015310;28;20290;-81
2023/07/12 01:21:11;;;;;;;15.88;5.38;;;19.00;99.90;;;;;;5032887;28;20664;-82
2023/07/12 01:23:39;;;;;;;11.35;4.22;;;19.10;99.90;;;;;;5032670;28;20229;-81
2023/07/12 01:26:22;;;;;;;13.32;4.60;;;19.10;99.90;;;;;;5015770;28;20261;-82
2023/07/12 01:28:52;;;;;;;12.95;4.22;;;19.00;99.90;;;;;;5012730;28;20199;-82
2023/07/12 01:31:20;;;;;;;14.68;4.20;;;19.00;99.90;;;;;;5031355;28;20226;-82
2023/07/12 01:33:47;;;;;;;15.57;3.97;;;19.00;99.90;;;;;;5032351;28;20222;-80
2023/07/12 01:36:15;;;;;;;16.58;4.15;;;19.00;99.90;;;;;;5032449;28;20231;-83
2023/07/12 01:38:42;;;;;;;17.83;4.18;;;19.00;99.90;;;;;;5032649;28;20277;-81
2023/07/12 01:41:09;;;;;;;14.57;4.13;;;19.00;99.90;;;;;;5032481;28;20275;-83
2023/07/12 01:43:37;;;;;;;12.77;4.22;;;19.00;99.90;;;;;;5032270;28;20320;-82
2023/07/12 01:46:04;;;;;;;18.17;4.53;;;19.00;99.90;;;;;;5021689;28;20207;-82
2023/07/12 01:48:31;;;;;;;12.18;3.92;;;19.00;99.90;;;;;;5013187;28;20282;-82
2023/07/12 01:50:59;;;;;;;10.55;3.75;;;19.00;99.90;;;;;;5016991;28;20662;-84
2023/07/12 01:53:27;;;;;;;12.90;3.67;;;19.00;99.90;;;;;;5025115;28;20276;-81
2023/07/12 01:55:55;;;;;;;16.50;4.75;;;19.00;99.90;;;;;;5036777;28;20429;-81
2023/07/12 01:58:22;;;;;;;15.18;4.13;;;19.00;99.90;;;;;;5036365;28;20217;-81
2023/07/12 02:00:51;;;;;;;14.50;4.30;;;19.00;99.90;;;;;;5036474;28;20230;-81
2023/07/12 02:03:18;;;;;;;15.95;4.50;;;19.00;99.90;;;;;;5018371;28;20562;-82
2023/07/12 02:05:45;;;;;;;13.18;3.85;;;19.00;99.90;;;;;;5016921;28;20245;-78
2023/07/12 02:08:13;;;;;;;15.02;4.57;;;19.00;99.90;;;;;;5017358;28;20210;-82
2023/07/12 02:10:41;;;;;;;12.55;4.03;;;19.00;99.90;;;;;;5015930;28;20290;-84
2023/07/12 02:13:08;;;;;;;14.10;4.18;;;19.00;99.90;;;;;;5017154;28;20250;-81
2023/07/12 02:15:35;;;;;;;14.18;4.18;;;18.90;99.90;;;;;;5016806;28;20262;-81
2023/07/12 02:18:03;;;;;;;13.07;4.43;;;18.90;99.90;;;;;;5015817;28;20203;-81
2023/07/12 02:20:30;;;;;;;10.90;4.03;;;18.90;99.90;;;;;;5017217;28;20520;-82
2023/07/12 02:22:57;;;;;;;9.88;3.83;;;18.90;99.90;;;;;;5016147;28;20282;-82
2023/07/12 02:25:24;;;;;;;9.27;3.38;;;18.90;99.90;;;;;;5015388;28;20219;-82
2023/07/12 02:27:53;;;;;;;11.05;3.92;;;18.90;99.90;;;;;;5032663;28;20264;-81
2023/07/12 02:30:22;;;;;;;10.73;3.38;;;18.90;99.90;;;;;;5035964;28;20199;-81
2023/07/12 02:32:50;;;;;;;15.05;3.75;;;18.90;99.90;;;;;;5023692;28;20389;-82
2023/07/12 02:35:18;;;;;;;13.23;4.00;;;18.90;99.90;;;;;;5015421;28;20255;-83
2023/07/12 02:37:45;;;;;;;17.17;4.70;;;18.80;99.90;;;;;;5015797;28;20280;-81
2023/07/12 02:40:13;;;;;;;13.63;3.67;;;18.90;99.90;;;;;;5015290;28;20198;-82
2023/07/12 02:42:40;;;;;;;13.43;3.95;;;18.90;99.90;;;;;;5029312;28;20281;-82
2023/07/12 02:45:09;;;;;;;13.32;3.53;;;18.90;99.90;;;;;;5032863;28;20607;-80
2023/07/12 02:47:36;;;;;;;14.60;4.43;;;18.90;99.90;;;;;;5015205;28;20207;-78
2023/07/12 02:50:05;;;;;;;13.85;4.05;;;18.90;99.90;;;;;;5015802;28;20238;-80
2023/07/12 02:52:33;;;;;;;10.57;3.38;;;18.90;99.90;;;;;;5016229;28;20206;-82
2023/07/12 02:55:00;;;;;;;9.88;3.38;;;18.90;99.90;;;;;;5035086;28;20238;-81
2023/07/12 02:57:27;;;;;;;14.90;4.13;;;18.90;99.90;;;;;;5021573;28;20258;-80
2023/07/12 02:59:54;;;;;;;12.35;3.88;;;18.90;99.90;;;;;;5014276;28;20279;-83
2023/07/12 03:02:23;;;;;;;12.57;3.70;;;18.80;99.90;;;;;;5015118;28;20208;-82
2023/07/12 03:04:51;;;;;;;15.80;4.40;;;18.80;99.90;;;;;;5015424;28;20202;-82
2023/07/12 03:07:18;;;;;;;12.77;4.30;;;18.80;99.90;;;;;;5015878;28;20300;-84
2023/07/12 03:09:45;;;;;;;14.52;3.70;;;18.80;99.90;;;;;;5015364;28;20210;-80
2023/07/12 03:12:12;;;;;;;14.88;3.97;;;18.80;99.90;;;;;;5015610;28;20257;-80
2023/07/12 03:14:39;;;;;;;13.73;3.83;;;18.80;99.90;;;;;;5015917;28;20568;-80
2023/07/12 03:17:06;;;;;;;12.25;3.97;;;18.80;99.90;;;;;;5015270;28;20195;-83
2023/07/12 03:19:36;;;;;;;12.10;4.10;;;18.80;99.90;;;;;;5015408;28;20222;-82
2023/07/12 03:22:03;;;;;;;17.48;4.50;;;18.80;99.90;;;;;;5015669;28;20219;-81
2023/07/12 03:24:30;;;;;;;17.58;4.63;;;18.80;99.90;;;;;;5015083;28;20306;-82
2023/07/12 03:26:57;;;;;;;14.15;4.68;;;18.70;99.90;;;;;;5023190;28;20210;-81
2023/07/12 03:29:24;;;;;;;13.52;4.90;;;18.70;99.90;;;;;;5015465;28;20597;-81
2023/07/12 03:31:51;;;;;;;16.40;4.47;;;18.70;99.90;;;;;;5015145;28;20197;-82
2023/07/12 03:34:18;;;;;;;11.55;4.10;;;18.70;99.90;;;;;;5015350;28;20301;-81
2023/07/12 03:36:47;;;;;;;15.15;4.03;;;18.80;99.90;;;;;;5017466;28;20250;-83
2023/07/12 03:39:14;;;;;;;12.20;4.18;;;18.80;99.90;;;;;;5034670;28;20679;-82
2023/07/12 03:41:41;;;;;;;16.40;4.72;;;18.80;99.90;;;;;;5034692;28;20223;-81
2023/07/12 03:44:08;;;;;;;16.08;4.97;;;18.80;99.90;;;;;;5034329;28;20563;-83
2023/07/12 03:46:35;;;;;;;13.35;4.70;;;18.80;99.90;;;;;;5033912;28;20225;-81
2023/07/12 03:49:02;;;;;;;15.93;4.53;;;18.80;99.90;;;;;;5033319;28;20203;-80
2023/07/12 03:51:29;;;;;;;13.93;4.47;;;18.70;99.90;;;;;;5029516;28;20284;-82
2023/07/12 03:53:59;;;;;;;20.88;5.97;;;18.70;99.90;;;;;;5013839;28;20227;-83
2023/07/12 03:56:26;;;;;;;15.48;4.60;;;18.70;99.90;;;;;;5013513;28;20295;-83
2023/07/12 03:58:53;;;;;;;15.05;4.40;;;18.60;99.90;;;;;;5014175;28;20219;-79
2023/07/12 04:01:20;;;;;;;13.35;3.78;;;18.60;99.90;;;;;;5034052;28;20253;-83
2023/07/12 04:03:47;;;;;;;15.10;4.40;;;18.60;99.90;;;;;;5033983;28;20202;-80
2023/07/12 04:06:14;;;;;;;12.18;4.18;;;18.60;99.90;;;;;;5034162;28;20191;-85
2023/07/12 04:08:42;;;;;;;15.40;4.35;;;18.60;99.90;;;;;;5033817;28;20252;-81
2023/07/12 04:11:23;;;;;;;16.92;4.38;;;18.60;99.90;;;;;;5032900;28;20230;-82
2023/07/12 04:13:50;;;;;;;13.80;4.70;;;18.60;99.90;;;;;;5033577;28;20296;-82
2023/07/12 04:16:17;;;;;;;12.10;4.00;;;18.60;99.90;;;;;;5033872;28;20793;-86
2023/07/12 04:18:44;;;;;;;12.15;4.00;;;18.60;99.90;;;;;;5014584;28;20581;-82
2023/07/12 04:21:11;;;;;;;13.02;3.67;;;18.60;99.90;;;;;;5014804;28;20242;-84
2023/07/12 04:23:38;;;;;;;14.02;4.63;;;18.60;99.90;;;;;;5014119;28;20203;-81
2023/07/12 04:26:06;;;;;;;13.27;4.32;;;18.60;99.90;;;;;;5014287;28;20195;-83
2023/07/12 04:28:39;;;;;;;12.13;4.60;;;18.60;99.90;;;;;;5015010;28;20219;-82
2023/07/12 04:31:09;;;;;;;13.15;4.30;;;18.60;99.90;;;;;;5013937;28;20294;-85
2023/07/12 04:33:36;;;;;;;14.68;4.40;;;18.60;99.90;;;;;;5014302;28;20314;-82
2023/07/12 04:36:07;;;;;;;16.08;4.65;;;18.60;99.90;;;;;;5028213;28;20238;-84
2023/07/12 04:38:34;;;;;;;14.70;4.05;;;18.70;99.90;;;;;;5033449;28;20222;-83
2023/07/12 04:41:01;;;;;;;9.77;4.15;;;18.70;99.90;;;;;;5033632;28;20281;-81
2023/07/12 04:43:29;;;;;;;14.88;5.07;;;18.80;99.90;;;;;;5033608;28;20237;-83
2023/07/12 04:45:59;;;;;;;19.60;6.32;;;18.80;99.90;;;;;;5032488;28;20341;-79
2023/07/12 04:48:26;;;;;;;23.38;7.47;;;18.80;99.90;;;;;;5032575;28;20182;-76
2023/07/12 04:50:55;;;;;;;19.10;6.95;;;18.80;99.90;;;;;;5032073;28;20207;-75
2023/07/12 04:53:23;;;;;;;17.33;9.50;;;18.70;99.90;;;;;;5032216;28;20230;-75
2023/07/12 04:55:52;;;;;;;19.70;11.20;;;18.70;99.90;;;;;;5031634;28;20215;-78
2023/07/12 04:58:19;;;;;;;23.92;11.73;;;18.60;99.90;;;;;;5012473;28;20643;-77
2023/07/12 05:00:46;;;;;;;20.48;11.75;;;18.60;99.90;;;;;;5012318;28;20195;-78
2023/07/12 05:03:16;;;;;;;17.02;7.80;;;18.60;99.90;;;;;;5012194;28;20710;-77
2023/07/12 05:05:43;;;;;;;18.13;6.20;;;18.50;99.90;;;;;;5012641;28;20199;-77
2023/07/12 05:08:10;;;;;;;17.52;5.15;;;18.50;99.90;;;;;;5012518;28;20234;-77
2023/07/12 05:10:37;;;;;;;16.65;5.78;;;18.50;99.90;;;;;;5012738;28;20213;-78
2023/07/12 05:13:04;;;;;;;17.77;5.57;;;18.50;99.90;;;;;;5018356;28;20238;-76
2023/07/12 05:15:31;;;;;;;18.63;5.22;;;18.50;99.90;;;;;;5032204;28;20309;-77
2023/07/12 05:17:58;;;;;;;21.02;5.60;;;18.50;99.90;;;;;;5032177;28;20187;-78
2023/07/12 05:20:27;;;;;;;16.08;4.95;;;18.50;99.90;;;;;;5022789;28;20830;-76
2023/07/12 05:22:54;;;;;;;17.45;4.90;;;18.50;99.90;;;;;;5012338;28;20220;-77
2023/07/12 05:25:21;;;;;;;15.70;4.93;;;18.40;99.90;;;;;;5019569;28;20269;-79
2023/07/12 05:27:48;;;;;;;21.90;6.55;;;18.40;99.90;;;;;;5030425;28;20203;-79
2023/07/12 05:30:15;;;;;;;20.42;6.20;;;18.40;99.90;;;;;;5031495;28;20281;-76
2023/07/12 05:32:42;;;;;;;18.98;5.88;;;18.40;99.90;;;;;;5031708;28;20234;-77
2023/07/12 05:35:10;;;;;;;18.45;5.97;;;18.40;99.90;;;;;;5031103;28;20602;-76
2023/07/12 05:37:38;;;;;;;22.85;7.05;;;18.40;99.90;;;;;;5032116;28;20195;-78
2023/07/12 05:40:06;;;;;;;23.67;6.18;;;18.50;99.90;;;;;;5032229;28;20272;-78
2023/07/12 05:42:33;;;;;;;21.65;7.85;;;18.50;99.90;;;;;;5019930;28;20207;-77
2023/07/12 05:45:00;;;;;;;17.08;5.93;;;18.60;99.90;;;;;;5012466;28;20290;-80
2023/07/12 05:47:27;;;;;;;14.70;5.65;;;18.60;99.90;;;;;;5014775;28;20221;-78
2023/07/12 05:49:55;;;;;;;19.48;6.68;;;18.60;99.90;;;;;;5032129;28;20202;-78
2023/07/12 05:52:22;;;;;;;21.55;6.43;;;18.70;99.90;;;;;;5032128;28;20554;-79
2023/07/12 05:54:50;;;;;;;21.23;6.13;;;18.70;99.90;;;;;;5032339;28;20258;-81
2023/07/12 05:57:17;;;;;;;16.38;6.43;;;18.80;99.90;;;;;;5030627;28;20288;-77
2023/07/12 05:59:44;;;;;;;17.27;6.03;;;18.80;99.90;;;;;;5032115;28;20191;-80
2023/07/12 06:02:14;;;;;;;19.25;6.05;;;18.80;99.90;;;;;;5031172;28;20202;-79
2023/07/12 06:04:41;;;;;;;13.93;4.78;;;18.80;99.90;;;;;;5030665;28;20187;-79
2023/07/12 06:07:08;;;;;;;19.70;5.88;;;18.90;99.90;;;;;;5011783;28;20242;-77
2023/07/12 06:09:35;;;;;;;21.10;6.07;;;18.90;99.90;;;;;;5011278;28;20207;-79
2023/07/12 06:12:03;;;;;;;25.30;6.78;;;18.90;99.90;;;;;;5012724;28;20200;-78
2023/07/12 06:14:30;;;;;;;19.13;6.40;;;18.90;99.90;;;;;;5011863;28;20219;-80
2023/07/12 06:16:57;;;;;;;14.38;5.53;;;18.90;99.90;;;;;;5011747;28;20608;-79
2023/07/12 06:19:24;;;;;;;14.80;5.10;;;18.80;99.90;;;;;;5012194;28;20208;-79
2023/07/12 06:21:52;;;;;;;15.35;5.50;;;18.80;99.90;;;;;;5012381;28;20291;-79
2023/07/12 06:24:19;;;;;;;18.40;5.72;;;18.70;99.90;;;;;;5011297;28;20235;-79
2023/07/12 06:26:46;;;;;;;16.52;5.70;;;18.70;99.90;;;;;;5012735;28;20290;-79
2023/07/12 06:29:14;;;;;;;18.15;5.72;;;18.80;99.90;;;;;;5031819;28;20253;-79
2023/07/12 06:31:43;;;;;;;14.45;5.50;;;18.90;99.90;;;;;;5031984;28;20205;-78
2023/07/12 06:34:11;;;;;;;16.38;5.15;;;19.00;99.90;;;;;;5031992;28;20464;-77
2023/07/12 06:36:38;;;;;;;15.38;4.95;;;19.00;99.90;;;;;;5034593;28;20207;-78
2023/07/12 06:39:05;;;;;;;18.27;5.10;;;19.20;99.90;;;;;;5050814;28;20233;-79
2023/07/12 06:41:32;;;;;;;18.42;5.10;;;19.30;99.90;;;;;;5055612;28;20248;-76
2023/07/12 06:43:59;;;;;;;14.40;4.40;;;19.40;99.90;;;;;;5053296;28;20374;-78
2023/07/12 06:46:27;;;;;;;10.75;4.57;;;19.40;99.90;;;;;;5017152;28;20616;-79
2023/07/12 06:48:54;;;;;;;13.68;4.60;;;19.40;99.90;;;;;;5041033;28;20355;-80
2023/07/12 06:51:21;;;;;;;8.52;3.92;;;19.30;99.90;;;;;;5049655;28;20213;-78
2023/07/12 06:53:48;;;;;;;17.20;4.40;;;19.30;99.90;;;;;;5049486;28;20213;-78
2023/07/12 06:56:15;;;;;;;13.45;4.43;;;19.20;99.90;;;;;;5042502;28;20242;-79
2023/07/12 06:58:42;;;;;;;12.45;3.58;;;19.20;99.90;;;;;;5037811;28;20226;-78
2023/07/12 07:01:10;;;;;;;12.48;3.83;;;19.10;99.90;;;;;;5037353;28;20230;-76
2023/07/12 07:03:38;;;;;;;12.18;4.53;;;19.10;99.90;;;;;;5027830;28;20249;-79
2023/07/12 07:06:05;;;;;;;11.55;3.78;;;19.10;99.90;;;;;;5033305;28;20492;-78
2023/07/12 07:08:33;;;;;;;10.15;3.80;;;19.20;99.90;;;;;;5029447;28;20203;-78
2023/07/12 07:11:00;;;;;;;10.18;3.67;;;19.50;99.90;;;;;;4992126;28;20301;-77
2023/07/12 07:13:28;;;;;;;12.90;3.88;;;19.50;99.90;;;;;;5029597;28;20203;-78
2023/07/12 07:15:55;;;;;;;10.57;3.60;;;19.50;99.90;;;;;;5032970;28;20222;-80
2023/07/12 07:18:22;;;;;;;11.07;3.75;;;19.40;99.90;;;;;;5025572;28;20194;-79
2023/07/12 07:20:51;;;;;;;11.85;3.75;;;19.30;99.90;;;;;;5019958;28;20251;-77
2023/07/12 07:23:18;;;;;;;13.70;3.35;;;19.30;99.90;;;;;;5033752;28;20218;-79
2023/07/12 07:25:46;;;;;;;8.48;3.50;;;19.30;99.90;;;;;;5012158;28;20273;-78
2023/07/12 07:28:13;;;;;;;11.52;4.05;;;19.30;99.90;;;;;;5020326;28;20230;-79
2023/07/12 07:30:40;;;;;;;9.77;3.50;;;19.30;99.90;;;;;;5032326;28;20357;-81
2023/07/12 07:33:07;;;;;;;8.25;3.03;;;19.20;99.90;;;;;;5029750;28;20199;-78
2023/07/12 07:35:35;;;;;;;8.88;2.92;;;19.30;99.90;;;;;;5031291;28;20222;-78
2023/07/12 07:38:03;;;;;;;8.75;3.40;;;19.50;99.90;;;;;;5030009;28;20219;-77
2023/07/12 07:40:30;;;;;;;7.28;3.03;;;19.80;99.90;;;;;;5025705;28;20293;-79
2023/07/12 07:42:57;;;;;;;10.80;3.63;;;20.20;99.90;;;;;;5030525;28;20700;-79
2023/07/12 07:45:24;;;;;;;7.30;3.13;;;20.30;99.90;;;;;;5032884;28;20285;-78
2023/07/12 07:47:51;;;;;;;12.43;3.88;;;20.30;99.90;;;;;;5032700;28;20209;-78
2023/07/12 07:50:20;;;;;;;9.55;3.60;;;20.50;99.90;;;;;;5033992;28;20230;-80
2023/07/12 07:52:47;;;;;;;9.88;3.78;;;20.70;99.90;;;;;;5028596;28;20203;-79
2023/07/12 07:55:16;;;;;;;8.27;3.40;;;20.90;99.90;;;;;;5013317;28;20314;-80
2023/07/12 07:57:43;;;;;;;15.25;4.22;;;21.10;99.90;;;;;;5014027;28;20522;-79
2023/07/12 08:00:13;;;;;;;8.77;3.20;;;21.40;99.90;;;;;;5024381;28;20260;-80
2023/07/12 08:02:42;;;;;;;8.55;3.40;;;21.70;99.90;;;;;;5033071;28;20253;-82
2023/07/12 08:05:09;;;;;;;8.77;3.35;;;21.80;99.90;;;;;;5034046;28;20543;-81
2023/07/12 08:07:40;;;;;;;9.50;3.22;;;21.70;1.00;;;;;;5016041;28;20270;-80
2023/07/12 08:10:09;;;;;;;6.63;3.25;;;21.60;1.00;;;;;;5013702;28;20234;-79
2023/07/12 08:12:37;;;;;;;10.05;3.38;;;21.50;1.00;;;;;;5021049;28;20226;-79
2023/07/12 08:15:05;;;;;;;7.70;3.60;;;21.40;1.00;;;;;;5033195;28;20742;-79
2023/07/12 08:17:32;;;;;;;8.57;3.47;;;21.30;1.00;;;;;;5032793;28;20207;-77
2023/07/12 08:19:59;;;;;;;6.20;2.60;;;21.30;1.00;;;;;;5013950;28;20330;-80
2023/07/12 08:22:26;;;;;;;5.20;2.55;;;21.20;1.00;;;;;;5013290;28;20195;-78
2023/07/12 08:24:53;;;;;;;6.72;2.55;;;21.10;99.90;;;;;;5013184;28;20259;-80
2023/07/12 08:27:20;;;;;;;6.65;2.65;;;21.20;1.00;;;;;;5031026;28;20264;-81
2023/07/12 08:29:48;;;;;;;6.10;2.85;;;21.10;99.90;;;;;;5033507;28;20504;-77
2023/07/12 08:32:17;;;;;;;6.07;2.63;;;21.10;1.00;;;;;;5032629;28;20222;-77
2023/07/12 08:34:44;;;;;;;9.05;2.95;;;21.20;1.00;;;;;;5032935;28;20260;-79
2023/07/12 08:37:11;;;;;;;7.47;2.85;;;21.30;1.00;;;;;;5032802;28;20252;-80
2023/07/12 08:39:38;;;;;;;12.15;3.25;;;21.30;1.00;;;;;;5030287;28;20508;-80
2023/07/12 08:42:12;;;;;;;6.60;2.60;;;21.40;1.00;;;;;;5032267;28;20265;-80
2023/07/12 08:44:39;;;;;;;9.57;2.53;;;21.70;1.00;;;;;;5031763;28;20222;-79
2023/07/12 08:47:16;;;;;;;8.82;2.80;;;22.10;1.00;;;;;;5032431;28;20226;-79
2023/07/12 08:49:45;;;;;;;6.53;2.30;;;22.20;1.00;;;;;;5013810;28;20211;-77
2023/07/12 08:52:17;;;;;;;7.55;3.10;;;22.10;99.90;;;;;;5012595;28;20282;-82
2023/07/12 08:54:44;;;;;;;7.85;3.10;;;22.00;99.90;;;;;;5020077;28;20230;-79
2023/07/12 08:57:23;;;;;;;7.50;3.33;;;21.80;1.00;;;;;;5031711;28;20224;-80
2023/07/12 09:00:02;;;;;;;6.85;3.00;;;21.70;1.00;;;;;;5022987;28;20218;-80
2023/07/12 09:02:30;;;;;;;9.30;3.90;;;21.70;1.00;;;;;;5014454;28;20214;-80
2023/07/12 09:04:59;;;;;;;11.63;3.70;;;21.60;99.90;;;;;;5031510;28;20559;-78
2023/07/12 09:07:30;;;;;;;13.23;3.75;;;21.50;1.00;;;;;;5031783;28;20257;-81
2023/07/12 09:10:00;;;;;;;7.85;3.63;;;21.40;1.00;;;;;;5032425;28;20212;-79
2023/07/12 09:12:30;;;;;;;11.55;3.72;;;21.50;1.00;;;;;;5031869;28;20210;-82
2023/07/12 09:15:00;;;;;;;10.68;3.30;;;21.60;1.00;;;;;;5032250;28;20271;-80
2023/07/12 09:17:32;;;;;;;7.63;3.08;;;21.70;99.90;;;;;;5032659;28;20223;-79
2023/07/12 09:19:59;;;;;;;7.47;2.67;;;21.70;99.90;;;;;;5032299;28;20245;-78
2023/07/12 09:22:30;;;;;;;8.77;3.30;;;21.60;1.00;;;;;;5032683;28;20226;-77
2023/07/12 09:24:57;;;;;;;8.40;3.13;;;21.70;99.90;;;;;;5030129;28;20234;-82
2023/07/12 09:27:26;;;;;;;7.15;3.35;;;21.70;1.00;;;;;;5031303;28;20277;-79
2023/07/12 09:29:59;;;;;;;9.40;3.60;;;22.00;1.00;;;;;;5031679;28;20206;-80
2023/07/12 09:32:33;;;;;;;6.35;2.67;;;22.00;99.90;;;;;;5032917;28;20202;-83
2023/07/12 09:35:02;;;;;;;7.13;2.80;;;22.10;99.90;;;;;;5031646;28;20208;-81
2023/07/12 09:37:36;;;;;;;7.78;3.30;;;22.10;99.90;;;;;;5021434;28;20258;-76
2023/07/12 09:40:05;;;;;;;6.80;3.00;;;22.30;1.00;;;;;;5012607;28;20203;-82
2023/07/12 09:42:32;;;;;;;8.10;3.38;;;22.60;1.00;;;;;;5011825;28;20297;-81
2023/07/12 09:45:04;;;;;;;5.43;2.92;;;22.80;1.00;;;;;;5013408;28;20296;-78
2023/07/12 09:47:43;;;;;;;6.78;2.65;;;22.80;1.00;;;;;;5012448;28;20211;-80
2023/07/12 09:50:16;;;;;;;6.05;2.80;;;23.00;1.00;;;;;;5029638;28;20198;-84
2023/07/12 09:53:03;;;;;;;5.13;2.55;;;23.10;1.00;;;;;;5015014;28;20306;-81
2023/07/12 09:55:43;;;;;;;9.02;2.17;;;23.30;99.90;;;;;;5025176;28;20284;-81
2023/07/12 09:58:16;;;;;;;8.35;2.90;;;23.50;1.00;;;;;;5033130;28;20256;-86
2023/07/12 10:00:51;;;;;;;7.57;3.20;;;23.50;99.90;;;;;;5033248;28;20194;-83
2023/07/12 10:03:24;;;;;;;5.65;2.60;;;23.50;26.90;;;;;;5032397;28;20205;-85
2023/07/12 10:05:59;;;;;;;6.80;2.47;;;23.60;1.00;;;;;;5032494;28;20207;-86
2023/07/12 10:08:35;;;;;;;5.68;2.10;;;23.80;1.00;;;;;;5033183;28;20215;-85
2023/07/12 10:11:08;;;;;;;5.88;2.42;;;24.10;1.00;;;;;;5034731;28;20602;-82
2023/07/12 10:13:40;;;;;;;7.45;2.63;;;24.40;1.00;;;;;;5025508;28;20254;-84
2023/07/12 10:16:14;;;;;;;5.85;2.35;;;24.50;99.90;;;;;;5015704;28;20681;-81
2023/07/12 10:18:45;;;;;;;5.68;2.40;;;24.40;84.70;;;;;;5018928;28;20194;-85
2023/07/12 10:21:18;;;;;;;6.18;1.90;;;24.40;99.90;;;;;;5032964;28;20260;-81
2023/07/12 10:23:48;;;;;;;5.18;2.40;;;24.40;99.90;;;;;;5016159;28;20195;-80
2023/07/12 10:26:16;;;;;;;4.90;2.10;;;24.50;99.90;;;;;;5016570;28;20245;-83
2023/07/12 10:28:49;;;;;;;6.18;2.67;;;24.50;1.00;;;;;;5015735;28;20199;-83
2023/07/12 10:31:28;;;;;;;7.50;2.42;;;24.50;99.90;;;;;;5016385;28;20345;-83
2023/07/12 10:34:15;;;;;;;6.18;3.40;;;24.80;99.90;;;;;;5016419;28;20213;-81
2023/07/12 10:36:44;;;;;;;4.38;2.03;;;25.00;1.00;;;;;;5027862;28;20264;-85
2023/07/12 10:39:11;;;;;;;4.07;1.65;;;25.10;1.00;;;;;;5036468;28;20206;-84
2023/07/12 10:41:46;;;;;;;6.53;2.40;;;25.10;1.00;;;;;;5035805;28;20217;-81
2023/07/12 10:44:19;;;;;;;8.23;1.90;;;25.00;1.00;;;;;;5034781;28;20234;-85
2023/07/12 10:46:50;;;;;;;6.15;2.20;;;25.10;1.00;;;;;;5035448;28;20481;-80
2023/07/12 10:49:21;;;;;;;4.43;2.13;;;25.10;1.00;;;;;;5035411;28;20191;-82
2023/07/12 10:52:15;;;;;;;4.93;2.03;;;25.30;1.00;;;;;;5034869;28;20230;-82
2023/07/12 10:54:51;;;;;;;5.97;1.83;;;25.50;1.00;;;;;;5031703;28;20316;-81
2023/07/12 10:57:28;;;;;;;10.48;2.22;;;25.50;1.00;;;;;;5017295;28;20218;-81
2023/07/12 11:00:05;;;;;;;4.82;1.65;;;25.40;1.00;;;;;;5027291;28;20592;-82
2023/07/12 11:02:40;;;;;;;13.07;2.63;;;25.40;1.00;;;;;;5032772;28;20241;-82
2023/07/12 11:05:43;;;;;;;6.10;2.28;;;25.50;1.00;;;;;;5033398;28;20282;-83
2023/07/12 11:08:39;;;;;;;3.05;1.98;;;25.50;1.00;;;;;;5034539;28;20576;-83
2023/07/12 11:11:30;;;;;;;4.35;2.10;;;25.50;1.00;;;;;;5031225;28;20662;-85
2023/07/12 11:14:12;;;;;;;3.97;1.63;;;25.40;1.00;;;;;;5014315;28;20208;-86
2023/07/12 11:16:46;;;;;;;3.50;1.77;;;25.50;1.00;;;;;;5025813;28;20231;-89
2023/07/12 11:19:32;;;;;;;6.18;1.70;;;25.60;1.00;;;;;;5020575;28;20194;-81
2023/07/12 11:22:05;;;;;;;110.68;14.82;;;25.80;99.90;;;;;;5027349;28;20195;-82
2023/07/12 11:24:38;;;;;;;8.18;2.72;;;26.00;1.00;;;;;;5033235;28;20348;-82
2023/07/12 11:27:10;;;;;;;6.47;1.80;;;26.10;1.00;;;;;;5014655;28;20211;-84
2023/07/12 11:29:47;;;;;;;17.13;2.58;;;26.30;1.00;;;;;;5014243;28;20282;-83
2023/07/12 11:32:21;;;;;;;5.63;1.70;;;26.50;1.00;;;;;;5034949;28;20225;-87
2023/07/12 11:34:50;;;;;;;38.85;7.75;;;26.60;99.90;;;;;;5033417;28;20304;-81
2023/07/12 11:37:25;;;;;;;7.57;2.13;;;26.70;1.00;;;;;;5019494;28;20230;-83
2023/07/12 11:39:52;;;;;;;6.70;1.60;;;26.80;99.90;;;;;;5014196;28;20199;-81
2023/07/12 11:42:24;;;;;;;7.22;1.80;;;26.90;99.90;;;;;;5014151;28;20187;-85
2023/07/12 11:45:05;;;;;;;16.52;3.58;;;26.90;99.90;;;;;;5032136;28;20576;-87
2023/07/12 11:47:33;;;;;;;7.00;1.90;;;27.00;99.90;;;;;;5034090;28;20615;-86
2023/07/12 11:50:02;;;;;;;7.70;2.28;;;26.90;99.90;;;;;;5034142;28;20617;-87
2023/07/12 11:52:30;;;;;;;4.75;1.88;;;26.90;99.90;;;;;;5033701;28;20246;-84
2023/07/12 11:54:57;;;;;;;6.88;2.00;;;26.80;99.90;;;;;;5012489;28;20227;-84
2023/07/12 11:57:24;;;;;;;55.05;9.55;;;26.90;99.90;;;;;;5013614;28;20230;-85
2023/07/12 11:59:52;;;;;;;20.02;3.63;;;27.00;99.90;;;;;;5013511;28;20777;-85
2023/07/12 12:02:21;;;;;;;17.52;3.78;;;26.70;99.90;;;;;;5022077;28;20221;-83
2023/07/12 12:04:50;;;;;;;9.52;2.15;;;26.70;1.00;;;;;;5033613;28;20268;-81
2023/07/12 12:07:24;;;;;;;7.93;2.40;;;26.60;1.00;;;;;;5033375;28;20230;-84
2023/07/12 12:09:55;;;;;;;5.50;2.20;;;26.40;99.90;;;;;;5032834;28;20317;-84
2023/07/12 12:12:30;;;;;;;6.82;2.22;;;26.30;1.00;;;;;;5033903;28;20257;-88
2023/07/12 12:14:57;;;;;;;4.68;1.83;;;26.30;1.00;;;;;;5033188;28;20287;-86
2023/07/12 12:17:27;;;;;;;6.70;1.95;;;26.30;99.90;;;;;;5033623;28;20639;-89
2023/07/12 12:20:04;;;;;;;5.10;1.85;;;26.40;99.90;;;;;;5034340;28;20261;-87
2023/07/12 12:22:31;;;;;;;7.70;2.13;;;26.10;99.90;;;;;;5034219;28;20564;-87
2023/07/12 12:25:02;;;;;;;10.52;2.58;;;25.80;99.90;;;;;;5034126;28;20281;-85
2023/07/12 12:27:34;;;;;;;6.00;2.03;;;25.50;1.00;;;;;;5034777;28;20685;-89
2023/07/12 12:30:16;;;;;;;8.10;2.22;;;25.50;1.00;;;;;;5034899;28;20199;-86
2023/07/12 12:32:55;;;;;;;7.20;2.40;;;25.60;1.00;;;;;;5035171;28;20285;-89
2023/07/12 12:35:22;;;;;;;7.07;2.15;;;25.50;99.90;;;;;;5034403;28;20261;-88
2023/07/12 12:37:55;;;;;;;5.40;1.70;;;25.50;1.00;;;;;;5033488;28;20222;-86
2023/07/12 12:40:24;;;;;;;5.88;1.88;;;25.40;1.00;;;;;;5030562;28;20214;-85
2023/07/12 12:43:02;;;;;;;3.45;1.45;;;25.50;1.00;;;;;;5034477;28;20191;-87
2023/07/12 12:45:32;;;;;;;5.32;1.70;;;25.60;1.00;;;;;;5034176;28;20583;-82
2023/07/12 12:48:00;;;;;;;4.68;1.63;;;25.70;99.90;;;;;;5034022;28;20226;-86
2023/07/12 12:50:28;;;;;;;9.25;2.50;;;25.50;99.90;;;;;;5034412;28;20210;-86
2023/07/12 12:53:00;;;;;;;6.22;2.28;;;25.50;1.00;;;;;;5034475;28;20226;-89
2023/07/12 12:55:29;;;;;;;7.70;2.03;;;25.50;1.00;;;;;;5033464;28;20690;-89